createdAt,value
2019-01-09T00:03:04.662Z,3.63
2019-01-09T00:08:09.547Z,3.43
2019-01-09T00:13:14.283Z,3.60
2019-01-09T00:18:19.261Z,3.57
2019-01-09T00:23:23.942Z,2.63
2019-01-09T00:28:28.531Z,2.77
2019-01-09T00:33:48.960Z,3.40
2019-01-09T00:38:53.579Z,3.40
2019-01-09T00:43:58.195Z,3.47
2019-01-09T00:49:02.835Z,3.30
2019-01-09T00:54:07.486Z,3.73
2019-01-09T00:59:15.081Z,3.67
2019-01-09T01:04:51.198Z,4.07
2019-01-09T01:10:33.354Z,3.00
2019-01-09T01:16:23.766Z,3.57
2019-01-09T01:21:35.085Z,3.50
2019-01-09T01:27:04.408Z,2.90
2019-01-09T01:32:35.763Z,3.93
2019-01-09T01:38:06.013Z,2.77
2019-01-09T01:43:23.655Z,3.17
2019-01-09T01:49:00.142Z,2.83
2019-01-09T01:54:58.117Z,3.43
2019-01-09T02:00:48.152Z,3.00
2019-01-09T02:06:12.739Z,4.00
2019-01-09T02:11:39.602Z,3.30
2019-01-09T02:17:17.567Z,3.03
2019-01-09T02:23:14.215Z,2.63
2019-01-09T02:28:29.622Z,4.43
2019-01-09T02:33:34.286Z,3.93
2019-01-09T02:38:38.873Z,3.20
2019-01-09T02:43:43.500Z,3.63
2019-01-09T02:48:48.738Z,3.30
2019-01-09T02:53:53.624Z,3.50
2019-01-09T02:58:58.706Z,4.20
2019-01-09T03:04:03.679Z,3.10
2019-01-09T03:09:08.190Z,4.60
2019-01-09T03:14:12.878Z,3.27
2019-01-09T03:19:17.458Z,3.37
2019-01-09T03:24:22.146Z,3.50
2019-01-09T03:29:26.799Z,2.50
2019-01-09T03:34:31.437Z,3.27
2019-01-09T03:39:36.144Z,3.30
2019-01-09T03:44:40.793Z,3.87
2019-01-09T03:49:45.235Z,3.67
2019-01-09T03:54:49.714Z,4.37
2019-01-09T03:59:54.318Z,3.97
2019-01-09T04:04:59.023Z,3.83
2019-01-09T04:10:08.499Z,3.00
2019-01-09T04:15:13.919Z,2.70
2019-01-09T04:20:18.919Z,2.93
2019-01-09T04:25:33.127Z,1.60
2019-01-09T04:30:37.694Z,2.70
2019-01-09T04:35:46.189Z,3.27
2019-01-09T04:40:50.703Z,3.80
2019-01-09T04:45:55.636Z,5.33
2019-01-09T04:51:00.271Z,4.50
2019-01-09T04:56:04.955Z,4.50
2019-01-09T05:01:09.427Z,4.37
2019-01-09T05:06:14.143Z,3.70
2019-01-09T05:11:18.837Z,4.33
2019-01-09T05:16:23.420Z,5.00
2019-01-09T05:21:27.964Z,5.17
2019-01-09T05:26:32.379Z,4.23
2019-01-09T05:31:37.134Z,4.50
2019-01-09T05:36:41.852Z,4.37
2019-01-09T05:41:46.897Z,5.50
2019-01-09T05:46:51.870Z,5.93
2019-01-09T05:51:56.351Z,4.63
2019-01-09T05:57:00.841Z,5.23
2019-01-09T06:02:05.679Z,4.47
2019-01-09T06:07:18.060Z,5.20
2019-01-09T06:12:16.362Z,5.03
2019-01-09T06:17:21.035Z,4.23
2019-01-09T06:22:25.524Z,4.33
2019-01-09T06:27:30.237Z,4.83
2019-01-09T06:32:34.806Z,3.87
2019-01-09T06:37:39.299Z,3.93
2019-01-09T06:42:47.273Z,3.43
2019-01-09T06:47:51.886Z,2.77
2019-01-09T06:52:56.487Z,2.80
2019-01-09T06:58:01.222Z,3.00
2019-01-09T07:03:05.728Z,3.47
2019-01-09T07:08:10.214Z,5.00
2019-01-09T07:13:14.768Z,5.27
2019-01-09T07:18:19.402Z,5.20
2019-01-09T07:23:25.696Z,5.13
2019-01-09T07:28:30.315Z,4.97
2019-01-09T07:33:37.915Z,5.20
2019-01-09T07:38:42.359Z,4.97
2019-01-09T07:43:46.871Z,3.40
2019-01-09T07:49:04.030Z,4.90
2019-01-09T07:54:08.463Z,3.63
2019-01-09T07:59:13.676Z,3.27
2019-01-09T08:04:18.459Z,4.30
2019-01-09T08:09:28.639Z,4.20
2019-01-09T08:14:33.243Z,4.93
2019-01-09T08:19:37.730Z,4.40
2019-01-09T08:24:42.186Z,4.43
2019-01-09T08:29:46.999Z,3.67
2019-01-09T08:34:52.175Z,3.40
2019-01-09T08:39:56.816Z,4.10
2019-01-09T08:45:01.306Z,4.43
2019-01-09T08:50:08.288Z,3.90
2019-01-09T08:55:13.031Z,3.90
2019-01-09T09:00:18.254Z,3.43
2019-01-09T09:05:22.850Z,4.53
2019-01-09T09:10:28.834Z,3.50
2019-01-09T09:15:33.408Z,2.83
2019-01-09T09:20:38.124Z,2.93
2019-01-09T09:25:42.914Z,4.30
2019-01-09T09:30:47.436Z,3.03
2019-01-09T09:35:52.225Z,2.77
2019-01-09T09:40:56.983Z,3.10
2019-01-09T09:46:01.689Z,3.87
2019-01-09T09:51:06.276Z,2.73
2019-01-09T09:56:10.799Z,2.57
2019-01-09T10:01:15.499Z,3.83
2019-01-09T10:06:20.022Z,4.37
2019-01-09T10:11:24.942Z,4.33
2019-01-09T10:16:29.810Z,2.93
2019-01-09T10:21:34.307Z,3.43
2019-01-09T10:26:38.738Z,3.80
2019-01-09T10:31:43.228Z,2.80
2019-01-09T10:36:48.127Z,2.97
2019-01-09T10:41:52.556Z,3.30
2019-01-09T10:46:56.988Z,2.67
2019-01-09T10:52:01.431Z,2.93
2019-01-09T10:57:06.023Z,2.70
2019-01-09T11:02:10.680Z,2.87
2019-01-09T11:07:15.260Z,2.67
2019-01-09T11:12:19.804Z,2.30
2019-01-09T11:17:24.404Z,2.83
2019-01-09T11:22:29.043Z,2.07
2019-01-09T11:27:33.553Z,1.93
2019-01-09T11:32:38.814Z,2.27
2019-01-09T11:37:43.590Z,2.63
2019-01-09T11:42:48.175Z,1.80
2019-01-09T11:47:52.764Z,2.20
2019-01-09T11:52:57.419Z,1.87
2019-01-09T11:58:01.914Z,1.93
2019-01-09T12:03:06.447Z,2.23
2019-01-09T12:08:11.077Z,2.50
2019-01-09T12:13:15.578Z,2.23
2019-01-09T12:18:20.376Z,2.50
2019-01-09T12:23:25.195Z,2.47
2019-01-09T12:28:29.724Z,2.03
2019-01-09T12:33:34.309Z,1.67
2019-01-09T12:38:39.055Z,2.43
2019-01-09T12:43:43.656Z,2.40
2019-01-09T12:48:48.430Z,1.87
2019-01-09T12:53:52.935Z,1.53
2019-01-09T12:58:57.595Z,1.70
2019-01-09T13:04:02.079Z,2.00
2019-01-09T13:09:09.495Z,1.90
2019-01-09T13:14:14.124Z,1.87
2019-01-09T13:19:18.760Z,2.10
2019-01-09T13:24:23.410Z,1.77
2019-01-09T13:29:30.710Z,1.33
2019-01-09T13:34:35.303Z,1.90
2019-01-09T13:39:39.943Z,2.10
2019-01-09T13:44:44.535Z,2.57
2019-01-09T13:49:49.463Z,1.77
2019-01-09T13:54:54.078Z,1.60
2019-01-09T13:59:58.929Z,1.23
2019-01-09T14:05:04.195Z,2.50
2019-01-09T14:10:11.159Z,1.63
2019-01-09T14:15:17.766Z,2.03
2019-01-09T14:20:22.355Z,2.10
2019-01-09T14:25:26.814Z,2.33
2019-01-09T14:30:31.394Z,1.73
2019-01-09T14:35:35.999Z,2.07
2019-01-09T14:40:40.449Z,2.00
2019-01-09T14:45:44.958Z,1.50
2019-01-09T14:50:50.210Z,2.27
2019-01-09T14:55:54.774Z,1.90
2019-01-09T15:00:59.383Z,1.93
2019-01-09T15:06:04.343Z,1.70
2019-01-09T15:11:09.331Z,2.23
2019-01-09T15:16:14.003Z,2.23
2019-01-09T15:21:18.707Z,1.83
2019-01-09T15:26:23.451Z,1.43
2019-01-09T15:31:28.092Z,2.57
2019-01-09T15:36:32.821Z,1.87
2019-01-09T15:41:37.857Z,1.60
2019-01-09T15:46:42.565Z,2.27
2019-01-09T15:51:47.411Z,1.90
2019-01-09T15:56:52.280Z,1.80
2019-01-09T16:01:57.222Z,1.50
2019-01-09T16:07:01.931Z,1.50
2019-01-09T16:12:06.720Z,1.83
2019-01-09T16:17:11.688Z,1.83
2019-01-09T16:22:16.311Z,2.13
2019-01-09T16:27:21.042Z,1.90
2019-01-09T16:32:25.676Z,2.20
2019-01-09T16:37:30.734Z,2.10
2019-01-09T16:42:35.639Z,2.23
2019-01-09T16:47:40.331Z,2.00
2019-01-09T16:52:44.947Z,2.13
2019-01-09T16:57:49.963Z,2.60
2019-01-09T17:02:54.957Z,2.30
2019-01-09T17:07:59.715Z,2.33
2019-01-09T17:13:04.630Z,2.07
2019-01-09T17:18:09.635Z,2.20
2019-01-09T17:23:14.318Z,2.20
2019-01-09T17:28:19.287Z,2.43
2019-01-09T17:33:24.083Z,2.43
2019-01-09T17:38:28.677Z,2.17
2019-01-09T17:43:33.557Z,2.97
2019-01-09T17:48:38.242Z,2.40
2019-01-09T17:53:43.222Z,2.20
2019-01-09T17:58:47.966Z,2.37
2019-01-09T18:03:52.768Z,2.10
2019-01-09T18:09:00.113Z,2.47
2019-01-09T18:14:06.200Z,2.93
2019-01-09T18:19:13.883Z,2.30
2019-01-09T18:24:18.696Z,2.77
2019-01-09T18:29:23.515Z,2.13
2019-01-09T18:34:54.289Z,2.30
2019-01-09T18:40:25.753Z,2.63
2019-01-09T18:45:56.654Z,2.90
2019-01-09T18:51:34.318Z,2.92
2019-01-09T18:56:38.896Z,2.73
2019-01-09T19:01:44.277Z,3.17
2019-01-09T19:06:49.134Z,2.77
2019-01-09T19:11:54.140Z,2.80
2019-01-09T19:16:58.764Z,2.33
2019-01-09T19:22:04.026Z,2.93
2019-01-09T19:27:09.331Z,3.33
2019-01-09T19:32:14.493Z,2.33
2019-01-09T19:37:19.159Z,2.60
2019-01-09T19:42:24.161Z,2.97
2019-01-09T19:47:28.906Z,2.53
2019-01-09T19:52:33.659Z,2.37
2019-01-09T19:57:38.314Z,2.53
2019-01-09T20:02:42.930Z,3.67
2019-01-09T20:07:47.639Z,2.73
2019-01-09T20:12:52.605Z,2.83
2019-01-09T20:17:57.268Z,2.83
2019-01-09T20:23:02.031Z,2.80
2019-01-09T20:28:06.722Z,2.13
2019-01-09T20:33:11.362Z,3.42
2019-01-09T20:38:16.310Z,2.90
2019-01-09T20:43:21.047Z,3.07
2019-01-09T20:48:26.073Z,2.80
2019-01-09T20:53:30.919Z,3.30
2019-01-09T20:58:35.963Z,2.30
2019-01-09T21:03:40.707Z,2.40
2019-01-09T21:08:45.557Z,2.40
2019-01-09T21:13:50.270Z,2.20
2019-01-09T21:18:55.386Z,2.90
2019-01-09T21:24:00.413Z,2.07
2019-01-09T21:29:05.228Z,2.90
2019-01-09T21:34:13.175Z,2.70
2019-01-09T21:39:18.107Z,2.30
2019-01-09T21:44:22.866Z,1.83
2019-01-09T21:49:27.726Z,3.33
2019-01-09T21:54:35.320Z,2.07
2019-01-09T21:59:40.196Z,2.30
2019-01-09T22:04:50.024Z,2.77
2019-01-09T22:09:54.941Z,2.50
2019-01-09T22:15:04.071Z,2.37
2019-01-09T22:20:12.996Z,2.13
2019-01-09T22:25:17.729Z,2.37
2019-01-09T22:30:24.452Z,2.43
2019-01-09T22:35:29.084Z,3.23
2019-01-09T22:40:33.798Z,2.60
2019-01-09T22:45:38.392Z,3.60
2019-01-09T22:50:43.220Z,2.97
2019-01-09T22:55:47.885Z,2.53
2019-01-09T23:01:31.020Z,2.90
2019-01-09T23:06:35.647Z,2.77
2019-01-09T23:11:40.220Z,2.57
2019-01-09T23:16:44.901Z,3.57
2019-01-09T23:21:49.537Z,2.30
2019-01-09T23:26:54.187Z,2.63
2019-01-09T23:31:58.865Z,3.27
2019-01-09T23:37:03.656Z,2.47
2019-01-09T23:42:08.360Z,2.83
2019-01-09T23:47:12.959Z,3.50
2019-01-09T23:52:17.595Z,2.50
2019-01-09T23:57:22.128Z,2.60
